LZKZ/KSC METAR and TAF weather

Enter ICAO airport designator
Station Type Date Time Source
LZKZ METAR 2020/07/06 20:30 UTC NOAA

LZKZ 062030Z 02020KT 9999 SCT032 BKN055 19/16 Q1009


Station Type Date Time Source
LZKZ Decoded METAR 2020/07/06 20:30 UTC NOAA

Kosice, Barca, Slovakia (LZKZ) 48-39-47N 021-14-28E
Jul 06, 2020 - 04:30 PM EDT / 2020.07.06 2030 UTC
Wind: from the NNE (020 degrees) at 23 MPH (20 KT):0
Visibility: greater than 7 mile(s):0
Sky conditions: mostly cloudy
Temperature: 66 F (19 C)
Dew Point: 60 F (16 C)
Relative Humidity: 82%
Pressure (altimeter): 29.80 in. Hg (1009 hPa)
ob: LZKZ 062030Z 02020KT 9999 SCT032 BKN055 19/16 Q1009
cycle: 20

Station Type Date Time Source
LZKZ TAF 2020/07/06 18:00 UTC NOAA

TAF LZKZ 061700Z 0618/0718 02010KT CAVOK PROB40
TEMPO 0621/0708 01020G35KT 5000 TSRA BKN040 SCT050CB
BECMG 0709/0711 9999 SCT040

Example: see airport list